Time;durP1;ratioP1;P1;durP2;ratioP2;P2;SDS_P1;SDS_P2;PMS_P1;PMS_P2;Temp;Humidity;BMP_temperature;BMP_pressure;BME280_temperature;BME280_humidity;BME280_pressure;Samples;Min_cycle;Max_cycle;Signal;HPM_P1;HPM_P2
2023/09/28 00:02:23;;;;;;;33.98;18.92;;;;;;;;;;1624988;87;25802;-51
2023/09/28 00:04:50;;;;;;;35.83;19.67;;;;;;;;;;1682258;84;25567;-50
2023/09/28 00:07:17;;;;;;;36.68;19.30;;;;;;;;;;1673120;85;27214;-49
2023/09/28 00:09:44;;;;;;;36.35;19.42;;;;;;;;;;1706035;83;25532;-50
2023/09/28 00:12:11;;;;;;;32.20;20.37;;;;;;;;;;1707932;83;25376;-51
2023/09/28 00:14:38;;;;;;;33.78;20.05;;;;;;;;;;1714627;83;25664;-50
2023/09/28 00:17:08;;;;;;;35.63;18.50;;;;;;;;;;1714632;83;25294;-50
2023/09/28 00:19:34;;;;;;;32.65;19.60;;;;;;;;;;1682621;85;33490;-48
2023/09/28 00:22:01;;;;;;;33.70;18.95;;;;;;;;;;1682358;85;25524;-49
2023/09/28 00:24:28;;;;;;;30.30;19.48;;;;;;;;;;1678938;85;25504;-49
2023/09/28 00:26:56;;;;;;;32.73;19.67;;;;;;;;;;1675112;85;25616;-49
2023/09/28 00:29:23;;;;;;;35.85;18.40;;;;;;;;;;1680741;85;25511;-49
2023/09/28 00:31:50;;;;;;;34.63;18.85;;;;;;;;;;1633754;86;27688;-52
2023/09/28 00:34:17;;;;;;;38.55;20.68;;;;;;;;;;1682374;85;25370;-51
2023/09/28 00:36:44;;;;;;;40.55;19.37;;;;;;;;;;1686869;83;25580;-53
2023/09/28 00:39:12;;;;;;;31.55;18.25;;;;;;;;;;1685892;85;25696;-54
2023/09/28 00:41:39;;;;;;;31.35;17.80;;;;;;;;;;1662398;85;25153;-52
2023/09/28 00:44:06;;;;;;;36.05;19.12;;;;;;;;;;1685876;85;27894;-53
2023/09/28 00:46:33;;;;;;;36.90;21.27;;;;;;;;;;1679388;85;25441;-53
2023/09/28 00:49:05;;;;;;;33.78;18.95;;;;;;;;;;1685869;85;25383;-54
2023/09/28 00:51:33;;;;;;;35.43;20.50;;;;;;;;;;1685840;85;25620;-49
2023/09/28 00:54:03;;;;;;;37.42;22.42;;;;;;;;;;1685982;85;25560;-50
2023/09/28 00:56:31;;;;;;;39.63;19.60;;;;;;;;;;1686009;85;27229;-51
2023/09/28 00:59:00;;;;;;;33.87;19.53;;;;;;;;;;1686015;85;25469;-50
2023/09/28 01:01:28;;;;;;;33.17;20.50;;;;;;;;;;1686105;85;25381;-50
2023/09/28 01:03:58;;;;;;;29.98;19.30;;;;;;;;;;1679522;85;25514;-50
2023/09/28 01:06:24;;;;;;;32.73;21.25;;;;;;;;;;1677806;85;25388;-50
2023/09/28 01:08:56;;;;;;;33.15;19.48;;;;;;;;;;1685848;85;27229;-50
2023/09/28 01:11:24;;;;;;;32.58;19.60;;;;;;;;;;1685744;85;25467;-52
2023/09/28 01:13:52;;;;;;;35.65;20.80;;;;;;;;;;1685858;85;25430;-50
2023/09/28 01:16:20;;;;;;;36.17;18.95;;;;;;;;;;1685833;85;25673;-50
2023/09/28 01:18:47;;;;;;;36.25;23.62;;;;;;;;;;1685884;85;25543;-48
2023/09/28 01:21:14;;;;;;;36.25;21.95;;;;;;;;;;1685834;85;27239;-48
2023/09/28 01:23:41;;;;;;;36.93;20.70;;;;;;;;;;1685756;85;25513;-49
2023/09/28 01:26:07;;;;;;;33.40;19.70;;;;;;;;;;1685841;85;25567;-48
2023/09/28 01:28:34;;;;;;;35.00;20.08;;;;;;;;;;1685694;85;25660;-50
2023/09/28 01:31:01;;;;;;;36.58;20.70;;;;;;;;;;1685959;85;25329;-50
2023/09/28 01:33:29;;;;;;;37.10;20.40;;;;;;;;;;1685864;85;27308;-50
2023/09/28 01:35:57;;;;;;;37.17;21.40;;;;;;;;;;1685719;85;25368;-49
2023/09/28 01:38:34;;;;;;;31.20;19.87;;;;;;;;;;1685832;85;25334;-49
2023/09/28 01:41:01;;;;;;;29.80;19.42;;;;;;;;;;1685889;85;26190;-54
2023/09/28 01:43:28;;;;;;;32.33;19.87;;;;;;;;;;1685878;85;25380;-53
2023/09/28 01:45:56;;;;;;;32.70;21.85;;;;;;;;;;1685871;85;27197;-53
2023/09/28 01:48:23;;;;;;;30.40;21.25;;;;;;;;;;1685803;85;25322;-53
2023/09/28 01:50:49;;;;;;;31.42;20.82;;;;;;;;;;1685848;85;25510;-53
2023/09/28 01:53:16;;;;;;;31.20;20.68;;;;;;;;;;1685848;85;25607;-52
2023/09/28 01:55:43;;;;;;;32.88;20.27;;;;;;;;;;1685899;85;25362;-53
2023/09/28 01:58:10;;;;;;;35.98;20.60;;;;;;;;;;1685841;85;27287;-52
2023/09/28 02:00:37;;;;;;;28.95;19.35;;;;;;;;;;1685774;85;25596;-53
2023/09/28 02:03:08;;;;;;;30.43;19.73;;;;;;;;;;1685862;85;25554;-53
2023/09/28 02:05:34;;;;;;;32.03;20.15;;;;;;;;;;1685629;85;26095;-53
2023/09/28 02:08:05;;;;;;;32.83;19.67;;;;;;;;;;1685880;85;25559;-54
2023/09/28 02:10:32;;;;;;;32.60;20.17;;;;;;;;;;1677754;85;28191;-54
2023/09/28 02:12:59;;;;;;;31.07;18.52;;;;;;;;;;1716005;82;25361;-52
2023/09/28 02:15:27;;;;;;;27.40;18.98;;;;;;;;;;1716082;83;25368;-54
2023/09/28 02:17:54;;;;;;;28.60;19.07;;;;;;;;;;1662478;85;25633;-53
2023/09/28 02:20:24;;;;;;;34.60;19.60;;;;;;;;;;1716060;83;25494;-54
2023/09/28 02:22:56;;;;;;;30.02;20.12;;;;;;;;;;1686024;85;27278;-53
2023/09/28 02:25:23;;;;;;;26.77;18.12;;;;;;;;;;1715240;83;25469;-53
2023/09/28 02:27:53;;;;;;;27.77;18.02;;;;;;;;;;1715895;83;25348;-51
2023/09/28 02:30:22;;;;;;;26.90;18.07;;;;;;;;;;1716168;83;25724;-53
2023/09/28 02:32:49;;;;;;;;;;;;;;;;;;1688594;85;25505;-53
2023/09/28 02:35:17;;;;;;;28.70;16.93;;;;;;;;;;1657412;86;27564;-53
2023/09/28 02:37:48;;;;;;;27.90;17.35;;;;;;;;;;1715968;83;25296;-53
2023/09/28 02:40:17;;;;;;;26.90;18.50;;;;;;;;;;1686069;85;25361;-53
2023/09/28 02:42:44;;;;;;;30.05;18.15;;;;;;;;;;1716144;83;25804;-50
2023/09/28 02:45:12;;;;;;;34.15;19.45;;;;;;;;;;1716119;83;25534;-53
2023/09/28 02:47:45;;;;;;;27.93;18.50;;;;;;;;;;1716196;83;27961;-54
2023/09/28 02:50:13;;;;;;;27.67;18.23;;;;;;;;;;1686140;85;25465;-53
2023/09/28 02:52:42;;;;;;;27.95;18.85;;;;;;;;;;1716206;83;25542;-54
2023/09/28 02:55:11;;;;;;;26.90;17.60;;;;;;;;;;1686298;85;25655;-54
2023/09/28 02:57:39;;;;;;;29.35;18.95;;;;;;;;;;1715706;83;25501;-51
2023/09/28 03:00:27;;;;;;;28.92;18.40;;;;;;;;;;1686184;85;27282;-53
2023/09/28 03:02:40;;;;;;;26.37;18.02;;;;;;;;;;1716110;83;25476;-53
2023/09/28 03:05:09;;;;;;;27.70;18.40;;;;;;;;;;1686271;85;25347;-52
2023/09/28 03:07:39;;;;;;;27.80;18.32;;;;;;;;;;1716403;83;26326;-52
2023/09/28 03:10:10;;;;;;;26.70;17.98;;;;;;;;;;1686167;85;25385;-53
2023/09/28 03:12:36;;;;;;;25.95;17.35;;;;;;;;;;1716248;83;27638;-52
2023/09/28 03:15:05;;;;;;;26.23;18.00;;;;;;;;;;1686114;85;25474;-52
2023/09/28 03:17:34;;;;;;;29.27;17.65;;;;;;;;;;1716310;83;33873;-53
2023/09/28 03:20:08;;;;;;;26.05;17.42;;;;;;;;;;1686245;85;25623;-51
2023/09/28 03:22:31;;;;;;;27.20;18.65;;;;;;;;;;1691881;83;25552;-52
2023/09/28 03:24:59;;;;;;;28.00;18.42;;;;;;;;;;1686148;85;27880;-50
2023/09/28 03:27:25;;;;;;;26.52;17.95;;;;;;;;;;1716087;83;25342;-54
2023/09/28 03:29:53;;;;;;;29.30;18.50;;;;;;;;;;1714849;83;25376;-51
2023/09/28 03:32:20;;;;;;;30.72;18.05;;;;;;;;;;1714856;83;25704;-53
2023/09/28 03:34:48;;;;;;;26.50;17.77;;;;;;;;;;1714657;82;25456;-49
2023/09/28 03:37:18;;;;;;;27.48;17.23;;;;;;;;;;1714612;83;27413;-53
2023/09/28 03:39:43;;;;;;;27.07;18.80;;;;;;;;;;1682269;85;25592;-53
2023/09/28 03:42:11;;;;;;;24.40;16.57;;;;;;;;;;1682471;85;25383;-53
2023/09/28 03:44:38;;;;;;;30.70;18.52;;;;;;;;;;1686866;85;25568;-53
2023/09/28 03:47:05;;;;;;;23.92;16.97;;;;;;;;;;1686969;85;25547;-50
2023/09/28 03:49:32;;;;;;;26.60;17.15;;;;;;;;;;1683123;85;27391;-52
2023/09/28 03:52:02;;;;;;;27.85;17.75;;;;;;;;;;1677272;85;25364;-53
2023/09/28 03:54:29;;;;;;;25.35;17.25;;;;;;;;;;1680350;85;25317;-53
2023/09/28 03:56:56;;;;;;;23.50;16.35;;;;;;;;;;1677639;85;25689;-50
2023/09/28 03:59:23;;;;;;;29.67;16.60;;;;;;;;;;1655672;85;25542;-49
2023/09/28 04:01:50;;;;;;;31.10;18.73;;;;;;;;;;1677357;85;27292;-53
2023/09/28 04:04:18;;;;;;;27.02;18.17;;;;;;;;;;1677201;85;25602;-52
2023/09/28 04:06:46;;;;;;;34.25;20.23;;;;;;;;;;1677579;85;25506;-52
2023/09/28 04:09:13;;;;;;;26.05;18.90;;;;;;;;;;1677285;85;25745;-53
2023/09/28 04:11:40;;;;;;;28.32;19.42;;;;;;;;;;1677302;85;25468;-53
2023/09/28 04:14:08;;;;;;;28.95;19.65;;;;;;;;;;1677256;85;27271;-50
2023/09/28 04:16:39;;;;;;;32.08;19.80;;;;;;;;;;1676377;85;25355;-54
2023/09/28 04:19:05;;;;;;;34.60;18.52;;;;;;;;;;1681544;85;29990;-52
2023/09/28 04:21:33;;;;;;;32.48;19.02;;;;;;;;;;1677286;85;25556;-51
2023/09/28 04:24:02;;;;;;;26.62;18.02;;;;;;;;;;1673153;85;25498;-53
2023/09/28 04:26:29;;;;;;;26.48;18.65;;;;;;;;;;1704734;84;27229;-51
2023/09/28 04:28:56;;;;;;;26.23;18.05;;;;;;;;;;1713337;83;25343;-51
2023/09/28 04:31:23;;;;;;;25.30;16.73;;;;;;;;;;1714629;83;25310;-53
2023/09/28 04:33:50;;;;;;;30.60;19.25;;;;;;;;;;1714564;83;27907;-51
2023/09/28 04:36:17;;;;;;;26.65;17.65;;;;;;;;;;1692155;83;25506;-50
2023/09/28 04:38:44;;;;;;;26.82;19.27;;;;;;;;;;1714665;83;27273;-52
2023/09/28 04:41:11;;;;;;;29.72;19.32;;;;;;;;;;1714557;83;25374;-52
2023/09/28 04:43:40;;;;;;;31.95;17.45;;;;;;;;;;1714660;83;25489;-52
2023/09/28 04:46:08;;;;;;;30.77;18.30;;;;;;;;;;1714664;83;25629;-51
2023/09/28 04:48:35;;;;;;;29.80;18.60;;;;;;;;;;1714674;83;25329;-53
2023/09/28 04:51:03;;;;;;;26.17;17.45;;;;;;;;;;1714628;83;27186;-53
2023/09/28 04:53:30;;;;;;;25.90;17.37;;;;;;;;;;1714831;83;25513;-48
2023/09/28 04:55:57;;;;;;;29.72;18.35;;;;;;;;;;1692236;83;25499;-49
2023/09/28 04:58:24;;;;;;;27.25;18.48;;;;;;;;;;1714584;83;25623;-49
2023/09/28 05:00:51;;;;;;;25.57;17.25;;;;;;;;;;1692275;83;25397;-49
2023/09/28 05:03:18;;;;;;;26.55;18.02;;;;;;;;;;1714544;82;27277;-53
2023/09/28 05:05:45;;;;;;;27.87;17.30;;;;;;;;;;1714361;83;25474;-55
2023/09/28 05:08:12;;;;;;;23.52;17.98;;;;;;;;;;1714548;83;25297;-51
2023/09/28 05:10:39;;;;;;;30.65;19.67;;;;;;;;;;1714526;83;26297;-53
2023/09/28 05:13:06;;;;;;;26.65;18.07;;;;;;;;;;1714598;83;25359;-53
2023/09/28 05:15:33;;;;;;;26.60;18.23;;;;;;;;;;1713705;83;27298;-51
2023/09/28 05:18:01;;;;;;;31.77;19.00;;;;;;;;;;1713112;83;25701;-53
2023/09/28 05:20:28;;;;;;;27.42;18.23;;;;;;;;;;1713993;83;25878;-52
2023/09/28 05:22:55;;;;;;;31.15;18.32;;;;;;;;;;1714541;83;25693;-54
2023/09/28 05:25:22;;;;;;;29.65;18.73;;;;;;;;;;1714581;83;25502;-51
2023/09/28 05:27:49;;;;;;;22.48;17.07;;;;;;;;;;1714652;83;27971;-52
2023/09/28 05:30:16;;;;;;;26.10;17.55;;;;;;;;;;1691708;83;25613;-53
2023/09/28 05:32:43;;;;;;;25.85;17.67;;;;;;;;;;1687129;84;25543;-53
2023/09/28 05:35:10;;;;;;;25.85;17.37;;;;;;;;;;1687055;85;25632;-52
2023/09/28 05:37:37;;;;;;;27.58;18.37;;;;;;;;;;1687118;85;25527;-50
2023/09/28 05:40:07;;;;;;;24.52;17.65;;;;;;;;;;1658386;86;27428;-52
2023/09/28 05:42:34;;;;;;;26.45;18.50;;;;;;;;;;1658372;86;25464;-50
2023/09/28 05:45:02;;;;;;;26.55;18.50;;;;;;;;;;1660493;86;25546;-54
2023/09/28 05:47:29;;;;;;;28.35;18.48;;;;;;;;;;1660471;86;25648;-53
2023/09/28 05:49:56;;;;;;;28.45;18.40;;;;;;;;;;1660604;86;25527;-53
2023/09/28 05:52:23;;;;;;;30.85;19.80;;;;;;;;;;1660452;86;29508;-54
2023/09/28 05:54:51;;;;;;;29.40;19.37;;;;;;;;;;1660432;86;25539;-50
2023/09/28 05:57:20;;;;;;;30.60;20.60;;;;;;;;;;1657103;86;25494;-51
2023/09/28 05:59:50;;;;;;;29.15;19.32;;;;;;;;;;1639382;86;26303;-52
2023/09/28 06:02:19;;;;;;;29.63;18.77;;;;;;;;;;1660487;86;25366;-51
2023/09/28 06:04:46;;;;;;;30.13;18.80;;;;;;;;;;1659784;86;27345;-50
2023/09/28 06:07:14;;;;;;;34.03;19.55;;;;;;;;;;1637686;86;25681;-51
2023/09/28 06:09:41;;;;;;;32.00;18.57;;;;;;;;;;1659113;86;25866;-52
2023/09/28 06:12:09;;;;;;;25.90;18.85;;;;;;;;;;1659630;86;25643;-50
2023/09/28 06:14:36;;;;;;;24.98;16.87;;;;;;;;;;1659262;86;25731;-51
2023/09/28 06:17:03;;;;;;;29.02;18.05;;;;;;;;;;1659078;85;28029;-50
2023/09/28 06:19:30;;;;;;;26.10;17.25;;;;;;;;;;1660086;86;25351;-52
2023/09/28 06:21:59;;;;;;;25.00;17.02;;;;;;;;;;1660630;86;25335;-49
2023/09/28 06:24:26;;;;;;;32.08;22.60;;;;;;;;;;1660587;86;25606;-51
2023/09/28 06:26:53;;;;;;;29.30;20.25;;;;;;;;;;1660665;86;25320;-53
2023/09/28 06:29:21;;;;;;;23.35;17.07;;;;;;;;;;1665977;84;28285;-50
2023/09/28 06:31:48;;;;;;;28.40;16.70;;;;;;;;;;1679726;85;25424;-50
2023/09/28 06:34:15;;;;;;;27.50;16.42;;;;;;;;;;1686476;85;25551;-49
2023/09/28 06:36:42;;;;;;;32.50;21.62;;;;;;;;;;1686409;85;25672;-50
2023/09/28 06:39:10;;;;;;;25.70;17.73;;;;;;;;;;1686489;85;25540;-51
2023/09/28 06:41:38;;;;;;;27.58;15.58;;;;;;;;;;1686478;85;27284;-52
2023/09/28 06:44:06;;;;;;;27.85;14.93;;;;;;;;;;1686408;85;25762;-54
2023/09/28 06:46:34;;;;;;;21.73;14.93;;;;;;;;;;1686390;85;25496;-54
2023/09/28 06:49:01;;;;;;;22.48;14.40;;;;;;;;;;1674419;85;26010;-53
2023/09/28 06:51:30;;;;;;;30.48;14.20;;;;;;;;;;1686495;85;25502;-52
2023/09/28 06:53:57;;;;;;;21.73;13.28;;;;;;;;;;1686618;85;27744;-54
2023/09/28 06:56:24;;;;;;;24.10;14.40;;;;;;;;;;1686389;85;25562;-54
2023/09/28 06:58:51;;;;;;;20.50;13.93;;;;;;;;;;1686454;85;25496;-52
2023/09/28 07:01:18;;;;;;;21.52;13.50;;;;;;;;;;1686398;85;25688;-52
2023/09/28 07:03:45;;;;;;;22.77;13.08;;;;;;;;;;1686460;85;25480;-52
2023/09/28 07:06:12;;;;;;;25.05;13.08;;;;;;;;;;1686393;85;27275;-56
2023/09/28 07:08:39;;;;;;;20.75;12.85;;;;;;;;;;1686378;85;25532;-53
2023/09/28 07:11:07;;;;;;;21.50;13.20;;;;;;;;;;1686517;85;25529;-56
2023/09/28 07:13:34;;;;;;;17.62;12.73;;;;;;;;;;1686450;85;25820;-51
2023/09/28 07:16:02;;;;;;;24.12;12.45;;;;;;;;;;1686559;85;25526;-53
2023/09/28 07:18:30;;;;;;;23.75;12.78;;;;;;;;;;1686503;85;27241;-52
2023/09/28 07:20:57;;;;;;;23.15;12.68;;;;;;;;;;1686430;85;25520;-53
2023/09/28 07:23:23;;;;;;;21.65;11.88;;;;;;;;;;1686464;85;25545;-54
2023/09/28 07:25:51;;;;;;;22.25;12.50;;;;;;;;;;1686367;85;25663;-54
2023/09/28 07:28:18;;;;;;;17.87;11.93;;;;;;;;;;1686500;85;25568;-51
2023/09/28 07:30:45;;;;;;;17.20;11.55;;;;;;;;;;1686155;85;27296;-52
2023/09/28 07:33:17;;;;;;;16.27;12.23;;;;;;;;;;1657386;86;25605;-52
2023/09/28 07:35:44;;;;;;;;;;;;;;;;;;1687416;85;25316;-52
2023/09/28 07:38:12;;;;;;;16.48;11.30;;;;;;;;;;1669814;85;25634;-55
2023/09/28 07:40:39;;;;;;;19.67;11.65;;;;;;;;;;1644163;86;25549;-53
2023/09/28 07:43:06;;;;;;;73.87;68.25;;;;;;;;;;1676814;85;27288;-52
2023/09/28 07:45:32;;;;;;;12.63;11.88;;;;;;;;;;1676725;85;25448;-54
2023/09/28 07:48:00;;;;;;;6.00;5.75;;;;;;;;;;1676818;85;25347;-53
2023/09/28 07:50:28;;;;;;;74.65;69.35;;;;;;;;;;1676759;85;25616;-51
2023/09/28 07:52:55;;;;;;;76.37;70.47;;;;;;;;;;1676833;85;25568;-51
2023/09/28 07:55:22;;;;;;;72.82;67.62;;;;;;;;;;1676836;85;27811;-51
2023/09/28 07:57:49;;;;;;;70.90;65.95;;;;;;;;;;1676771;85;25647;-52
2023/09/28 08:00:17;;;;;;;69.07;64.37;;;;;;;;;;1676968;85;25472;-51
2023/09/28 08:02:45;;;;;;;69.60;64.15;;;;;;;;;;1676806;85;25787;-52
2023/09/28 08:05:12;;;;;;;70.13;65.03;;;;;;;;;;1677083;85;25491;-51
2023/09/28 08:07:40;;;;;;;72.53;67.67;;;;;;;;;;1655323;85;27568;-51
2023/09/28 08:10:11;;;;;;;73.22;67.80;;;;;;;;;;1676706;85;25562;-51
2023/09/28 08:12:39;;;;;;;71.17;66.37;;;;;;;;;;1676831;85;25539;-54
2023/09/28 08:15:06;;;;;;;70.52;65.62;;;;;;;;;;1676900;85;27025;-55
2023/09/28 08:17:40;;;;;;;73.42;67.92;;;;;;;;;;1676833;85;25331;-52
2023/09/28 08:20:09;;;;;;;68.80;63.87;;;;;;;;;;1676858;85;27872;-52
2023/09/28 08:22:36;;;;;;;72.92;67.67;;;;;;;;;;1676728;85;25746;-54
2023/09/28 08:25:08;;;;;;;72.67;67.22;;;;;;;;;;1676784;85;25544;-51
2023/09/28 08:27:35;;;;;;;71.02;65.70;;;;;;;;;;1676633;85;25654;-53
2023/09/28 08:30:04;;;;;;;68.10;63.40;;;;;;;;;;1672368;85;25354;-53
2023/09/28 08:32:31;;;;;;;71.25;65.90;;;;;;;;;;1721244;83;27269;-50
2023/09/28 08:34:59;;;;;;;68.52;63.70;;;;;;;;;;1688765;84;25589;-51
2023/09/28 08:37:27;;;;;;;71.30;65.97;;;;;;;;;;1721264;83;25538;-50
2023/09/28 08:39:57;;;;;;;67.67;62.88;;;;;;;;;;1688889;84;25627;-53
2023/09/28 08:42:26;;;;;;;68.87;63.92;;;;;;;;;;1721221;83;25320;-54
2023/09/28 08:44:57;;;;;;;69.85;64.75;;;;;;;;;;1688814;85;27327;-55
2023/09/28 08:47:25;;;;;;;68.25;63.58;;;;;;;;;;1720858;83;25537;-54
2023/09/28 08:49:54;;;;;;;68.90;64.03;;;;;;;;;;1721414;83;25306;-55
2023/09/28 08:52:23;;;;;;;68.12;63.35;;;;;;;;;;1721221;83;25634;-52
2023/09/28 08:54:50;;;;;;;67.80;62.88;;;;;;;;;;1688948;85;25290;-53
2023/09/28 08:57:18;;;;;;;66.02;61.42;;;;;;;;;;1721255;83;27168;-53
2023/09/28 08:59:46;;;;;;;80.30;73.60;;;;;;;;;;1721131;83;25520;-58
2023/09/28 09:02:15;;;;;;;68.12;63.50;;;;;;;;;;1721436;83;25399;-58
2023/09/28 09:04:42;;;;;;;66.20;62.00;;;;;;;;;;1688985;85;27877;-59
2023/09/28 09:07:10;;;;;;;21.73;10.53;;;;;;;;;;1722911;82;25333;-59
2023/09/28 09:09:40;;;;;;;17.82;9.40;;;;;;;;;;1688896;85;27192;-59
2023/09/28 09:12:11;;;;;;;14.47;8.48;;;;;;;;;;1721197;83;25657;-52
2023/09/28 09:14:38;;;;;;;13.03;8.78;;;;;;;;;;1721183;83;25359;-55
2023/09/28 09:17:06;;;;;;;14.70;9.50;;;;;;;;;;1721162;83;25678;-54
2023/09/28 09:19:34;;;;;;;14.95;9.40;;;;;;;;;;1721239;83;25490;-55
2023/09/28 09:22:04;;;;;;;16.02;9.53;;;;;;;;;;1721473;83;27986;-54
2023/09/28 09:24:30;;;;;;;12.40;9.15;;;;;;;;;;1720919;83;25500;-54
2023/09/28 09:26:57;;;;;;;12.30;8.15;;;;;;;;;;1721162;83;25457;-54
2023/09/28 09:29:25;;;;;;;16.15;7.87;;;;;;;;;;1721312;83;26415;-54
2023/09/28 09:31:52;;;;;;;14.38;8.23;;;;;;;;;;1691330;83;25397;-54
2023/09/28 09:34:21;;;;;;;60.67;56.30;;;;;;;;;;1687136;84;27195;-55
2023/09/28 09:36:57;;;;;;;59.85;55.73;;;;;;;;;;1687068;85;25473;-53
2023/09/28 09:39:30;;;;;;;63.17;58.65;;;;;;;;;;1687276;85;25499;-55
2023/09/28 09:41:58;;;;;;;60.15;55.45;;;;;;;;;;1658345;86;25624;-54
2023/09/28 09:44:27;;;;;;;58.68;54.60;;;;;;;;;;1658490;84;33112;-53
2023/09/28 09:46:55;;;;;;;61.28;57.05;;;;;;;;;;1660475;86;27305;-55
2023/09/28 09:49:26;;;;;;;61.83;57.20;;;;;;;;;;1660554;86;25510;-52
2023/09/28 09:51:54;;;;;;;60.85;56.80;;;;;;;;;;1660494;86;25470;-55
2023/09/28 09:54:22;;;;;;;;;;;;;;;;;;1662849;86;25695;-53
2023/09/28 09:56:53;;;;;;;60.90;56.63;;;;;;;;;;1660688;86;25853;-57
2023/09/28 09:59:23;;;;;;;58.80;54.80;;;;;;;;;;1660560;86;27397;-57
2023/09/28 10:01:53;;;;;;;63.08;57.65;;;;;;;;;;1660460;86;25569;-52
2023/09/28 10:04:23;;;;;;;67.58;62.33;;;;;;;;;;1660555;86;25410;-49
2023/09/28 10:07:00;;;;;;;61.73;57.90;;;;;;;;;;1660464;86;26222;-50
2023/09/28 10:09:28;;;;;;;59.50;55.80;;;;;;;;;;1660564;86;25327;-49
2023/09/28 10:11:56;;;;;;;93.77;85.70;;;;;;;;;;1687300;85;27222;-50
2023/09/28 10:14:25;;;;;;;68.55;63.38;;;;;;;;;;1687133;84;25498;-50
2023/09/28 10:16:54;;;;;;;61.58;57.53;;;;;;;;;;1687109;85;25530;-50
2023/09/28 10:19:24;;;;;;;63.10;58.23;;;;;;;;;;1658258;86;25615;-52
2023/09/28 10:21:52;;;;;;;63.25;59.38;;;;;;;;;;1658551;86;25300;-55
2023/09/28 10:24:34;;;;;;;60.45;56.55;;;;;;;;;;1639832;86;27227;-55
2023/09/28 10:27:07;;;;;;;61.47;56.30;;;;;;;;;;1658894;86;25682;-55
2023/09/28 10:29:34;;;;;;;62.10;57.25;;;;;;;;;;1660535;86;25490;-53
2023/09/28 10:32:15;;;;;;;62.27;57.83;;;;;;;;;;1675265;84;25689;-55
2023/09/28 10:34:43;;;;;;;40.52;37.83;;;;;;;;;;1647494;87;25356;-53
2023/09/28 10:37:18;;;;;;;59.58;54.83;;;;;;;;;;1659364;86;27976;-55
2023/09/28 10:39:49;;;;;;;63.68;59.10;;;;;;;;;;1658744;86;25360;-56
2023/09/28 10:42:24;;;;;;;57.98;54.35;;;;;;;;;;1644682;87;25521;-54
2023/09/28 10:44:55;;;;;;;63.02;58.65;;;;;;;;;;1659415;86;25635;-55
2023/09/28 10:47:25;;;;;;;59.85;55.98;;;;;;;;;;1644834;87;25697;-55
2023/09/28 10:50:04;;;;;;;57.17;53.52;;;;;;;;;;1659348;86;26735;-56
2023/09/28 10:52:32;;;;;;;60.83;56.00;;;;;;;;;;1659219;86;25503;-52
2023/09/28 10:54:59;;;;;;;61.18;56.15;;;;;;;;;;1644728;87;25193;-56
2023/09/28 10:57:31;;;;;;;59.08;54.83;;;;;;;;;;1659256;86;25798;-57
2023/09/28 11:00:02;;;;;;;61.58;57.25;;;;;;;;;;1644812;87;25401;-55
2023/09/28 11:02:40;;;;;;;60.08;55.98;;;;;;;;;;1659340;86;27637;-57
2023/09/28 11:05:10;;;;;;;58.78;54.70;;;;;;;;;;1644882;87;25450;-57
2023/09/28 11:07:40;;;;;;;60.80;56.75;;;;;;;;;;1644809;86;25516;-58
2023/09/28 11:10:11;;;;;;;57.30;53.60;;;;;;;;;;1659423;86;25733;-58
2023/09/28 11:12:38;;;;;;;61.42;57.58;;;;;;;;;;1668582;85;25502;-58
2023/09/28 11:15:14;;;;;;;59.73;55.88;;;;;;;;;;1646272;85;27747;-58
2023/09/28 11:17:40;;;;;;;58.73;55.03;;;;;;;;;;1671273;84;25556;-56
2023/09/28 11:20:11;;;;;;;62.13;57.73;;;;;;;;;;1672302;85;25330;-56
2023/09/28 11:22:40;;;;;;;58.80;55.17;;;;;;;;;;1686381;85;25670;-56
2023/09/28 11:25:13;;;;;;;57.90;53.68;;;;;;;;;;1686448;85;25092;-58
2023/09/28 11:27:42;;;;;;;56.98;52.85;;;;;;;;;;1686460;85;27209;-57
2023/09/28 11:30:20;;;;;;;59.63;55.83;;;;;;;;;;1663087;85;25448;-57
2023/09/28 11:32:51;;;;;;;57.75;54.13;;;;;;;;;;1715621;83;25313;-56
2023/09/28 11:35:26;;;;;;;57.27;53.58;;;;;;;;;;1686129;85;25347;-57
2023/09/28 11:37:56;;;;;;;57.60;54.10;;;;;;;;;;1716193;83;25478;-57
2023/09/28 11:40:24;;;;;;;56.80;53.50;;;;;;;;;;1684311;85;27334;-57
2023/09/28 11:43:01;;;;;;;56.53;52.33;;;;;;;;;;1716072;83;25995;-56
2023/09/28 11:45:33;;;;;;;13.22;7.20;;;;;;;;;;1716119;83;25523;-58
2023/09/28 11:48:15;;;;;;;13.53;5.60;;;;;;;;;;1716213;83;25729;-57
2023/09/28 11:50:42;;;;;;;8.25;5.20;;;;;;;;;;1716098;83;25484;-57
2023/09/28 11:53:11;;;;;;;8.38;4.62;;;;;;;;;;1716140;83;27322;-57
2023/09/28 11:55:50;;;;;;;33.35;30.95;;;;;;;;;;1716114;83;25622;-57
2023/09/28 11:58:20;;;;;;;9.65;5.20;;;;;;;;;;1715164;83;25477;-59
2023/09/28 12:00:52;;;;;;;16.35;4.55;;;;;;;;;;1716099;83;26164;-59
2023/09/28 12:03:19;;;;;;;8.68;4.78;;;;;;;;;;1716156;83;25585;-56
2023/09/28 12:05:49;;;;;;;13.98;5.00;;;;;;;;;;1716026;83;26855;-55
2023/09/28 12:08:17;;;;;;;9.83;5.05;;;;;;;;;;1716065;83;25400;-58
2023/09/28 12:10:44;;;;;;;159.55;145.02;;;;;;;;;;1716040;83;25386;-54
2023/09/28 12:13:11;;;;;;;10.68;5.87;;;;;;;;;;1716072;83;25682;-55
2023/09/28 12:15:38;;;;;;;8.35;5.33;;;;;;;;;;1716186;83;25071;-56
2023/09/28 12:18:05;;;;;;;6.55;5.85;;;;;;;;;;1716063;83;27265;-56
2023/09/28 12:20:32;;;;;;;7.87;5.33;;;;;;;;;;1716064;83;25345;-55
2023/09/28 12:22:59;;;;;;;15.47;5.40;;;;;;;;;;1691797;83;25430;-56
2023/09/28 12:25:28;;;;;;;60.35;57.05;;;;;;;;;;1716104;83;26226;-57
2023/09/28 12:27:57;;;;;;;59.70;55.98;;;;;;;;;;1686108;85;25326;-55
2023/09/28 12:30:24;;;;;;;8.18;5.08;;;;;;;;;;1716001;83;27289;-55
2023/09/28 12:32:51;;;;;;;11.97;4.95;;;;;;;;;;1690129;83;25541;-53
2023/09/28 12:35:59;;;;;;;7.37;4.50;;;;;;;33.24;25.71;100820.97;1887119;76;25420;-57
2023/09/28 12:38:25;;;;;;;9.93;4.92;;;;;;;32.98;25.27;100822.39;1757328;80;25541;-56
2023/09/28 12:40:52;;;;;;;15.80;5.03;;;;;;;32.88;25.53;100822.12;1820424;78;28702;-57
2023/09/28 12:43:20;;;;;;;7.12;4.53;;;;;;;32.75;26.16;100800.53;1788142;80;25645;-54
2023/09/28 12:45:47;;;;;;;7.25;6.55;;;;;;;32.91;25.61;100801.62;1820377;78;25541;-56
2023/09/28 12:48:18;;;;;;;8.20;5.08;;;;;;;32.75;25.62;100806.14;1788066;80;25404;-57
2023/09/28 12:50:47;;;;;;;9.43;4.78;;;;;;;32.79;25.72;100810.84;1820367;78;25584;-56
2023/09/28 12:53:15;;;;;;;9.38;4.85;;;;;;;32.61;25.60;100798.22;1788142;80;28226;-56
2023/09/28 12:55:42;;;;;;;8.45;4.75;;;;;;;32.47;25.63;100808.44;1820315;78;25588;-57
2023/09/28 12:58:09;;;;;;;7.60;4.83;;;;;;;32.22;25.79;100807.22;1788130;80;25385;-58
2023/09/28 13:00:37;;;;;;;7.40;4.97;;;;;;;32.27;25.62;100831.06;1820416;78;25643;-56
2023/09/28 13:03:08;;;;;;;12.18;5.10;;;;;;;32.21;25.91;100802.84;1788221;80;25448;-55
2023/09/28 13:05:41;;;;;;;8.03;5.22;;;;;;;32.29;25.84;100804.19;1820454;78;27539;-57
2023/09/28 13:08:15;;;;;;;9.58;5.12;;;;;;;32.13;25.64;100801.48;1788034;80;25746;-55
2023/09/28 13:10:42;;;;;;;6.72;4.90;;;;;;;31.92;25.73;100803.66;1820377;78;25391;-57
2023/09/28 13:13:09;;;;;;;7.70;4.95;;;;;;;31.88;26.38;100798.80;1788125;80;25309;-58
2023/09/28 13:15:35;;;;;;;8.60;4.95;;;;;;;31.87;26.22;100786.03;1788056;78;25643;-54
2023/09/28 13:21:13;;;;;;;9.70;5.22;;;;;;;31.71;26.48;100786.13;1710535;83;25971;-55
2023/09/28 13:23:41;;;;;;;9.03;4.65;;;;;;;31.93;26.30;100788.47;1744165;82;25581;-56
2023/09/28 13:26:10;;;;;;;9.65;5.15;;;;;;;31.81;26.29;100806.78;1743893;82;25700;-56
2023/09/28 13:28:38;;;;;;;12.20;5.47;;;;;;;31.62;26.60;100786.16;1743976;82;25409;-56
2023/09/28 13:31:08;;;;;;;8.93;4.90;;;;;;;31.67;27.11;100783.45;1743949;82;27479;-56
2023/09/28 13:33:37;;;;;;;7.17;5.40;;;;;;;31.68;26.65;100791.21;1743888;82;25620;-56
2023/09/28 13:36:07;;;;;;;14.65;5.60;;;;;;;31.59;28.31;100808.01;1763777;81;25802;-57
2023/09/28 13:38:35;;;;;;;17.37;6.20;;;;;;;31.59;28.31;100808.01;1765283;81;25511;-57
2023/09/28 13:41:04;;;;;;;8.93;5.58;;;;;;;31.42;28.23;100793.89;1765482;81;25562;-57
2023/09/28 13:43:30;;;;;;;9.50;5.95;;;;;;;31.22;28.52;100792.63;1765266;81;27541;-55
2023/09/28 13:45:57;;;;;;;9.90;6.08;;;;;;;30.94;28.92;100796.94;1764968;81;25590;-56
2023/09/28 13:48:25;;;;;;;12.98;6.50;;;;;;;30.94;28.92;100796.94;1764775;81;25732;-58
2023/09/28 13:50:55;;;;;;;9.65;5.85;;;;;;;30.78;29.93;100786.55;1764758;81;25760;-64
2023/09/28 13:53:19;;;;;;;12.73;5.75;;;;;;;30.87;30.05;100793.09;1764151;81;25442;-64
2023/09/28 13:55:50;;;;;;;7.83;5.72;;;;;;;30.63;30.29;100793.89;1739278;81;28836;-64
2023/09/28 13:58:19;;;;;;;10.93;5.90;;;;;;;30.32;30.39;100785.02;1823411;77;32540;-64
2023/09/28 14:00:46;;;;;;;8.53;6.17;;;;;;;30.09;31.31;100790.13;1863895;77;25366;-63
2023/09/28 14:03:12;;;;;;;9.75;5.90;;;;;;;29.95;31.41;100782.24;1863794;77;25532;-64
2023/09/28 14:05:39;;;;;;;12.40;6.67;;;;;;;29.84;31.95;100785.08;1863708;77;25520;-64
2023/09/28 14:08:11;;;;;;;6.83;5.92;;;;;;;29.77;31.84;100780.44;1863669;77;28516;-65